createdAt,value
2019-06-20T00:01:44.242Z,17.38
2019-06-20T00:04:32.564Z,17.25
2019-06-20T00:07:20.040Z,17.17
2019-06-20T00:10:07.770Z,17.14
2019-06-20T00:13:00.549Z,17.12
2019-06-20T00:15:43.438Z,17.14
2019-06-20T00:18:31.118Z,17.04
2019-06-20T00:21:19.226Z,17.01
2019-06-20T00:24:07.178Z,17.02
2019-06-20T00:26:55.310Z,17.04
2019-06-20T00:29:42.896Z,17.08
2019-06-20T00:32:31.167Z,17.08
2019-06-20T00:35:19.122Z,17.08
2019-06-20T00:38:06.892Z,17.06
2019-06-20T00:40:55.040Z,17.04
2019-06-20T00:43:42.850Z,16.99
2019-06-20T00:46:30.515Z,16.99
2019-06-20T00:49:18.367Z,16.96
2019-06-20T00:52:06.358Z,16.96
2019-06-20T00:54:54.589Z,16.97
2019-06-20T00:57:42.523Z,16.99
2019-06-20T01:00:30.284Z,16.96
2019-06-20T01:03:17.888Z,16.90
2019-06-20T01:06:05.548Z,16.92
2019-06-20T01:08:53.957Z,16.90
2019-06-20T01:11:41.695Z,16.84
2019-06-20T01:14:29.937Z,16.71
2019-06-20T01:17:18.211Z,16.69
2019-06-20T01:20:06.230Z,16.70
2019-06-20T01:22:54.074Z,16.60
2019-06-20T01:25:42.265Z,16.64
2019-06-20T01:28:30.091Z,16.68
2019-06-20T01:31:17.980Z,16.71
2019-06-20T01:34:05.683Z,16.73
2019-06-20T01:36:53.195Z,16.77
2019-06-20T01:39:41.446Z,16.78
2019-06-20T01:42:29.523Z,16.81
2019-06-20T01:45:18.045Z,16.77
2019-06-20T01:48:06.158Z,16.76
2019-06-20T01:50:53.661Z,16.73
2019-06-20T01:53:41.889Z,16.73
2019-06-20T01:56:29.858Z,16.75
2019-06-20T01:59:18.118Z,16.80
2019-06-20T02:02:06.124Z,16.84
2019-06-20T02:04:54.045Z,16.86
2019-06-20T02:07:41.729Z,16.75
2019-06-20T02:10:29.231Z,16.73
2019-06-20T02:13:17.476Z,16.73
2019-06-20T02:16:05.093Z,16.74
2019-06-20T02:18:52.820Z,16.74
2019-06-20T02:21:40.265Z,16.69
2019-06-20T02:24:27.979Z,16.69
2019-06-20T02:27:15.610Z,16.72
2019-06-20T02:30:04.307Z,16.79
2019-06-20T02:32:51.658Z,16.83
2019-06-20T02:35:39.947Z,16.86
2019-06-20T02:38:28.282Z,16.88
2019-06-20T02:41:16.337Z,16.87
2019-06-20T02:44:05.023Z,16.87
2019-06-20T02:46:52.636Z,16.82
2019-06-20T02:49:40.355Z,16.74
2019-06-20T02:52:27.951Z,16.66
2019-06-20T02:55:15.959Z,16.59
2019-06-20T02:58:03.492Z,16.54
2019-06-20T03:00:56.917Z,16.50
2019-06-20T03:03:44.801Z,16.48
2019-06-20T03:06:32.509Z,16.46
2019-06-20T03:09:20.218Z,16.46
2019-06-20T03:12:07.763Z,16.47
2019-06-20T03:14:58.747Z,16.46
2019-06-20T03:17:43.925Z,16.47
2019-06-20T03:20:31.603Z,16.50
2019-06-20T03:23:19.201Z,16.48
2019-06-20T03:26:07.398Z,16.51
2019-06-20T03:28:55.543Z,16.53
2019-06-20T03:31:43.094Z,16.52
2019-06-20T03:34:30.792Z,16.54
2019-06-20T03:37:19.045Z,16.58
2019-06-20T03:40:06.995Z,16.59
2019-06-20T03:42:54.471Z,16.60
2019-06-20T03:45:42.689Z,16.64
2019-06-20T03:48:30.931Z,16.70
2019-06-20T03:51:19.410Z,16.74
2019-06-20T03:54:07.685Z,16.80
2019-06-20T03:56:55.953Z,16.87
2019-06-20T03:59:43.661Z,16.92
2019-06-20T04:02:31.326Z,16.96
2019-06-20T04:05:19.268Z,17.01
2019-06-20T04:08:06.942Z,17.04
2019-06-20T04:10:54.463Z,17.06
2019-06-20T04:13:42.693Z,17.12
2019-06-20T04:16:30.276Z,17.14
2019-06-20T04:19:18.567Z,17.18
2019-06-20T04:22:06.784Z,17.17
2019-06-20T04:24:54.802Z,17.18
2019-06-20T04:27:42.573Z,17.16
2019-06-20T04:30:30.528Z,17.20
2019-06-20T04:33:18.491Z,17.19
2019-06-20T04:36:06.697Z,17.21
2019-06-20T04:38:54.612Z,17.23
2019-06-20T04:41:42.475Z,17.26
2019-06-20T04:44:29.853Z,17.30
2019-06-20T04:47:17.685Z,17.34
2019-06-20T04:50:05.432Z,17.35
2019-06-20T04:52:52.908Z,17.40
2019-06-20T04:55:41.318Z,17.42
2019-06-20T04:58:29.937Z,17.48
2019-06-20T05:01:17.802Z,17.54
2019-06-20T05:04:05.347Z,17.55
2019-06-20T05:06:55.456Z,17.55
2019-06-20T05:09:43.136Z,17.56
2019-06-20T05:12:31.509Z,17.60
2019-06-20T05:15:18.952Z,17.59
2019-06-20T05:18:06.830Z,17.65
2019-06-20T05:20:54.502Z,17.69
2019-06-20T05:23:42.100Z,17.73
2019-06-20T05:26:30.391Z,17.82
2019-06-20T05:29:18.185Z,17.99
2019-06-20T05:32:06.390Z,18.12
2019-06-20T05:34:53.796Z,18.25
2019-06-20T05:37:41.984Z,18.38
2019-06-20T05:40:30.211Z,18.53
2019-06-20T05:43:18.192Z,18.54
2019-06-20T05:46:10.795Z,18.69
2019-06-20T05:48:53.798Z,18.77
2019-06-20T05:51:41.797Z,18.84
2019-06-20T05:54:29.387Z,18.84
2019-06-20T05:57:17.242Z,18.95
2019-06-20T06:00:06.006Z,19.11
2019-06-20T06:02:53.628Z,19.31
2019-06-20T06:05:41.706Z,19.45
2019-06-20T06:08:29.757Z,19.56
2019-06-20T06:11:17.969Z,19.72
2019-06-20T06:14:05.462Z,19.80
2019-06-20T06:16:53.198Z,19.91
2019-06-20T06:19:40.712Z,19.88
2019-06-20T06:22:28.937Z,20.02
2019-06-20T06:25:17.050Z,20.14
2019-06-20T06:28:04.996Z,20.09
2019-06-20T06:30:53.097Z,20.02
2019-06-20T06:33:40.720Z,19.87
2019-06-20T06:36:28.545Z,19.88
2019-06-20T06:39:16.330Z,19.80
2019-06-20T06:42:04.453Z,19.78
2019-06-20T06:44:52.564Z,19.90
2019-06-20T06:47:40.166Z,19.89
2019-06-20T06:50:28.306Z,19.84
2019-06-20T06:53:15.810Z,19.86
2019-06-20T06:56:03.299Z,19.92
2019-06-20T06:58:50.805Z,19.92
2019-06-20T07:01:39.342Z,19.88
2019-06-20T07:04:26.794Z,19.88
2019-06-20T07:07:14.559Z,19.89
2019-06-20T07:10:02.260Z,19.95
2019-06-20T07:12:49.995Z,19.92
2019-06-20T07:15:37.720Z,20.27
2019-06-20T07:18:25.469Z,20.74
2019-06-20T07:21:13.230Z,20.77
2019-06-20T07:24:01.059Z,20.92
2019-06-20T07:26:49.029Z,20.85
2019-06-20T07:29:36.995Z,20.67
2019-06-20T07:32:24.749Z,20.85
2019-06-20T07:35:12.405Z,20.73
2019-06-20T07:37:59.912Z,20.61
2019-06-20T07:40:48.214Z,20.44
2019-06-20T07:43:35.993Z,20.43
2019-06-20T07:46:23.859Z,20.44
2019-06-20T07:49:11.964Z,20.24
2019-06-20T07:51:59.476Z,20.28
2019-06-20T07:54:47.303Z,20.33
2019-06-20T07:57:35.085Z,20.42
2019-06-20T08:00:22.697Z,20.54
2019-06-20T08:03:10.573Z,20.59
2019-06-20T08:05:59.041Z,20.85
2019-06-20T08:08:46.726Z,21.30
2019-06-20T08:11:34.337Z,21.56
2019-06-20T08:14:22.704Z,21.76
2019-06-20T08:17:10.771Z,22.08
2019-06-20T08:19:58.329Z,22.10
2019-06-20T08:22:46.217Z,22.26
2019-06-20T08:25:33.845Z,22.03
2019-06-20T08:28:22.295Z,21.86
2019-06-20T08:31:10.508Z,21.79
2019-06-20T08:33:59.233Z,21.42
2019-06-20T08:36:45.566Z,21.23
2019-06-20T08:39:33.639Z,21.16
2019-06-20T08:42:21.543Z,21.17
2019-06-20T08:45:09.245Z,21.07
2019-06-20T08:47:58.274Z,21.13
2019-06-20T08:50:45.263Z,21.28
2019-06-20T08:53:33.250Z,21.57
2019-06-20T08:56:21.143Z,21.49
2019-06-20T08:59:23.482Z,21.84
2019-06-20T09:01:58.741Z,22.22
2019-06-20T09:04:45.008Z,22.82
2019-06-20T09:07:32.990Z,23.50
2019-06-20T09:10:20.970Z,24.02
2019-06-20T09:13:09.199Z,24.45
2019-06-20T09:15:56.971Z,24.31
2019-06-20T09:18:44.895Z,24.51
2019-06-20T09:21:33.011Z,24.28
2019-06-20T09:24:21.464Z,24.30
2019-06-20T09:27:09.530Z,24.61
2019-06-20T09:29:58.531Z,24.78
2019-06-20T09:32:46.079Z,24.57
2019-06-20T09:35:33.933Z,24.68
2019-06-20T09:38:21.947Z,24.88
2019-06-20T09:41:09.647Z,25.28
2019-06-20T09:43:58.558Z,25.22
2019-06-20T09:46:45.891Z,25.61
2019-06-20T09:49:33.390Z,25.98
2019-06-20T09:52:21.613Z,26.06
2019-06-20T09:55:09.183Z,25.37
2019-06-20T09:57:58.190Z,24.93
2019-06-20T10:00:44.663Z,24.44
2019-06-20T10:03:32.336Z,24.18
2019-06-20T10:06:20.048Z,24.27
2019-06-20T10:09:08.553Z,24.04
2019-06-20T10:11:56.511Z,23.81
2019-06-20T10:14:45.471Z,23.74
2019-06-20T10:17:32.051Z,24.30
2019-06-20T10:20:20.423Z,24.94
2019-06-20T10:23:08.277Z,24.14
2019-06-20T10:25:56.008Z,24.55
2019-06-20T10:28:44.616Z,24.55
2019-06-20T10:31:31.764Z,23.89
2019-06-20T10:34:19.282Z,24.22
2019-06-20T10:37:07.266Z,24.29
2019-06-20T10:39:56.777Z,24.23
2019-06-20T10:42:44.441Z,23.72
2019-06-20T10:45:30.149Z,23.45
2019-06-20T10:48:17.715Z,23.40
2019-06-20T10:51:23.599Z,24.04
2019-06-20T10:54:11.839Z,24.23
2019-06-20T10:56:59.392Z,24.72
2019-06-20T10:59:48.440Z,25.61
2019-06-20T11:02:35.160Z,25.89
2019-06-20T11:05:23.001Z,26.59
2019-06-20T11:08:10.676Z,26.57
2019-06-20T11:10:58.284Z,26.64
2019-06-20T11:13:46.537Z,26.19
2019-06-20T11:16:34.270Z,25.64
2019-06-20T11:19:21.954Z,25.50
2019-06-20T11:22:10.416Z,25.46
2019-06-20T11:24:58.237Z,25.62
2019-06-20T11:27:47.337Z,25.80
2019-06-20T11:30:48.097Z,26.51
2019-06-20T11:33:21.760Z,26.92
2019-06-20T11:36:09.198Z,26.78
2019-06-20T11:38:57.050Z,26.77
2019-06-20T11:41:45.270Z,27.40
2019-06-20T11:44:32.841Z,27.43
2019-06-20T11:47:20.703Z,27.68
2019-06-20T11:50:08.244Z,27.50
2019-06-20T11:52:56.035Z,27.70
2019-06-20T11:55:44.022Z,28.20
2019-06-20T11:58:31.883Z,28.47
2019-06-20T12:01:32.304Z,28.34
2019-06-20T12:04:09.411Z,27.74
2019-06-20T12:06:54.853Z,27.48
2019-06-20T12:09:44.196Z,27.98
2019-06-20T12:12:30.436Z,27.85
2019-06-20T12:15:18.188Z,27.61
2019-06-20T12:18:06.342Z,27.06
2019-06-20T12:20:54.232Z,26.07
2019-06-20T12:23:42.523Z,25.28
2019-06-20T12:26:30.316Z,26.24
2019-06-20T12:29:17.883Z,27.03
2019-06-20T12:32:05.534Z,27.02
2019-06-20T12:34:53.037Z,27.20
2019-06-20T12:37:40.665Z,27.70
2019-06-20T12:40:28.572Z,27.91
2019-06-20T12:43:16.122Z,27.77
2019-06-20T12:46:03.738Z,27.91
2019-06-20T12:48:51.486Z,27.43
2019-06-20T12:51:40.479Z,27.95
2019-06-20T12:54:29.964Z,28.24
2019-06-20T12:57:14.360Z,27.51
2019-06-20T13:00:01.904Z,27.23
2019-06-20T13:02:49.901Z,27.64
2019-06-20T13:05:38.467Z,27.08
2019-06-20T13:08:25.507Z,27.14
2019-06-20T13:11:13.543Z,26.35
2019-06-20T13:14:02.223Z,26.96
2019-06-20T13:16:50.265Z,27.86
2019-06-20T13:19:39.132Z,27.85
2019-06-20T13:22:25.908Z,28.47
2019-06-20T13:25:14.015Z,28.76
2019-06-20T13:28:01.850Z,28.68
2019-06-20T13:30:52.077Z,28.77
2019-06-20T13:33:39.628Z,28.58
2019-06-20T13:36:26.739Z,28.85
2019-06-20T13:39:14.310Z,28.59
2019-06-20T13:42:02.593Z,28.52
2019-06-20T13:44:50.732Z,28.77
2019-06-20T13:47:38.850Z,28.84
2019-06-20T13:50:26.256Z,28.59
2019-06-20T13:53:14.347Z,29.07
2019-06-20T13:56:02.379Z,29.49
2019-06-20T13:58:51.259Z,29.49
2019-06-20T14:01:40.208Z,29.53
2019-06-20T14:04:26.144Z,29.37
2019-06-20T14:07:14.642Z,29.14
2019-06-20T14:10:02.720Z,29.67
2019-06-20T14:12:50.195Z,29.77
2019-06-20T14:15:38.077Z,29.78
2019-06-20T14:18:25.942Z,29.69
2019-06-20T14:21:13.847Z,29.46
2019-06-20T14:24:01.371Z,28.81
2019-06-20T14:26:50.690Z,29.01
2019-06-20T14:29:37.985Z,28.91
2019-06-20T14:32:25.740Z,29.49
2019-06-20T14:35:14.279Z,29.57
2019-06-20T14:38:02.778Z,29.38
2019-06-20T14:40:52.417Z,29.46
2019-06-20T14:43:38.799Z,29.46
2019-06-20T14:46:26.459Z,28.92
2019-06-20T14:49:14.541Z,29.29
2019-06-20T14:52:02.308Z,28.89
2019-06-20T14:54:50.041Z,29.48
2019-06-20T14:57:40.736Z,29.74
2019-06-20T15:00:28.862Z,30.19
2019-06-20T15:03:16.390Z,30.55
2019-06-20T15:06:04.494Z,29.70
2019-06-20T15:09:00.242Z,29.38
2019-06-20T15:11:39.756Z,29.83
2019-06-20T15:14:27.324Z,29.50
2019-06-20T15:17:15.213Z,28.88
2019-06-20T15:20:03.117Z,28.62
2019-06-20T15:22:52.555Z,28.40
2019-06-20T15:25:38.890Z,28.80
2019-06-20T15:28:26.361Z,29.62
2019-06-20T15:31:14.048Z,29.11
2019-06-20T15:34:01.675Z,28.20
2019-06-20T15:36:50.276Z,27.37
2019-06-20T15:39:37.450Z,27.19
2019-06-20T15:42:26.130Z,27.06
2019-06-20T15:45:13.706Z,27.12
2019-06-20T15:48:01.453Z,27.03
2019-06-20T15:50:49.897Z,27.18
2019-06-20T15:53:38.175Z,27.32
2019-06-20T15:56:25.415Z,26.88
2019-06-20T15:59:13.391Z,27.22
2019-06-20T16:02:01.206Z,28.69
2019-06-20T16:04:49.611Z,29.88
2019-06-20T16:07:37.447Z,31.06
2019-06-20T16:10:25.779Z,31.77
2019-06-20T16:13:13.532Z,31.29
2019-06-20T16:16:01.267Z,32.32
2019-06-20T16:18:48.680Z,31.98
2019-06-20T16:21:36.432Z,31.63
2019-06-20T16:24:24.460Z,30.61
2019-06-20T16:27:12.279Z,30.39
2019-06-20T16:29:59.843Z,29.87
2019-06-20T16:32:48.175Z,29.70
2019-06-20T16:35:35.885Z,30.73
2019-06-20T16:38:23.452Z,31.20
2019-06-20T16:41:11.001Z,30.57
2019-06-20T16:43:59.335Z,30.43
2019-06-20T16:46:47.512Z,28.07
2019-06-20T16:49:35.081Z,26.92
2019-06-20T16:52:22.651Z,26.99
2019-06-20T16:55:11.263Z,27.03
2019-06-20T16:57:59.297Z,27.29
2019-06-20T17:00:47.316Z,26.90
2019-06-20T17:03:41.737Z,26.56
2019-06-20T17:06:22.472Z,25.69
2019-06-20T17:09:10.732Z,25.33
2019-06-20T17:11:58.679Z,25.20
2019-06-20T17:14:46.135Z,24.97
2019-06-20T17:17:34.390Z,24.66
2019-06-20T17:20:22.932Z,24.53
2019-06-20T17:23:10.857Z,24.53
2019-06-20T17:26:01.443Z,24.52
2019-06-20T17:28:46.741Z,24.37
2019-06-20T17:31:34.596Z,24.22
2019-06-20T17:34:22.578Z,24.02
2019-06-20T17:37:10.529Z,23.87
2019-06-20T17:39:58.233Z,23.64
2019-06-20T17:42:46.020Z,23.51
2019-06-20T17:45:33.625Z,23.40
2019-06-20T17:48:21.481Z,23.40
2019-06-20T17:51:09.194Z,23.40
2019-06-20T17:53:56.963Z,23.20
2019-06-20T17:56:44.600Z,23.19
2019-06-20T17:59:32.583Z,23.09
2019-06-20T18:02:20.885Z,23.06
2019-06-20T18:05:09.144Z,23.03
2019-06-20T18:07:57.330Z,22.92
2019-06-20T18:10:44.922Z,22.95
2019-06-20T18:13:33.206Z,22.81
2019-06-20T18:16:25.305Z,22.69
2019-06-20T18:19:08.780Z,22.54
2019-06-20T18:21:56.451Z,22.54
2019-06-20T18:24:44.236Z,22.54
2019-06-20T18:27:32.586Z,22.53
2019-06-20T18:30:22.352Z,22.36
2019-06-20T18:33:10.302Z,21.61
2019-06-20T18:35:58.168Z,21.09
2019-06-20T18:38:46.023Z,20.74
2019-06-20T18:41:34.234Z,20.50
2019-06-20T18:44:21.879Z,20.22
2019-06-20T18:47:09.882Z,19.65
2019-06-20T18:49:57.683Z,19.32
2019-06-20T18:52:52.168Z,19.05
2019-06-20T18:55:33.413Z,18.92
2019-06-20T18:58:21.107Z,18.87
2019-06-20T19:01:08.785Z,18.85
2019-06-20T19:03:56.704Z,18.75
2019-06-20T19:06:44.372Z,18.70
2019-06-20T19:09:32.779Z,18.67
2019-06-20T19:12:20.772Z,18.66
2019-06-20T19:15:08.549Z,18.65
2019-06-20T19:17:56.296Z,18.62
2019-06-20T19:20:44.105Z,18.59
2019-06-20T19:23:32.666Z,18.65
2019-06-20T19:26:20.332Z,18.75
2019-06-20T19:29:08.593Z,18.86
2019-06-20T19:31:56.165Z,18.96
2019-06-20T19:34:43.874Z,19.00
2019-06-20T19:37:32.183Z,19.06
2019-06-20T19:40:19.768Z,19.14
2019-06-20T19:43:07.335Z,19.14
2019-06-20T19:45:55.029Z,19.17
2019-06-20T19:48:43.129Z,19.16
2019-06-20T19:51:31.008Z,19.16
2019-06-20T19:54:19.002Z,19.14
2019-06-20T19:57:06.465Z,19.07
2019-06-20T19:59:54.157Z,19.03
2019-06-20T20:02:42.098Z,18.99
2019-06-20T20:05:30.508Z,18.95
2019-06-20T20:08:18.477Z,18.88
2019-06-20T20:11:06.115Z,18.68
2019-06-20T20:13:54.097Z,18.70
2019-06-20T20:16:42.354Z,18.65
2019-06-20T20:19:29.858Z,18.61
2019-06-20T20:22:17.544Z,18.51
2019-06-20T20:25:06.348Z,18.49
2019-06-20T20:27:54.096Z,18.50
2019-06-20T20:30:41.973Z,18.51
2019-06-20T20:33:30.204Z,18.43
2019-06-20T20:36:24.887Z,18.36
2019-06-20T20:39:06.753Z,18.33
2019-06-20T20:41:54.355Z,18.31
2019-06-20T20:44:41.976Z,18.27
2019-06-20T20:47:29.757Z,18.23
2019-06-20T20:50:17.438Z,18.30
2019-06-20T20:53:04.980Z,18.31
2019-06-20T20:55:52.789Z,18.39
2019-06-20T20:58:40.589Z,18.45
2019-06-20T21:01:30.217Z,18.53
2019-06-20T21:04:17.773Z,18.52
2019-06-20T21:07:05.662Z,18.54
2019-06-20T21:09:54.072Z,18.54
2019-06-20T21:12:42.470Z,18.55
2019-06-20T21:15:30.319Z,18.60
2019-06-20T21:18:18.591Z,18.62
2019-06-20T21:21:06.866Z,18.62
2019-06-20T21:23:54.733Z,18.57
2019-06-20T21:26:49.589Z,18.51
2019-06-20T21:29:30.130Z,18.44
2019-06-20T21:32:18.036Z,18.43
2019-06-20T21:35:08.827Z,18.40
2019-06-20T21:37:56.761Z,18.40
2019-06-20T21:40:44.434Z,18.32
2019-06-20T21:43:32.361Z,18.21
2019-06-20T21:46:20.828Z,18.20
2019-06-20T21:49:08.763Z,18.13
2019-06-20T21:51:56.606Z,18.05
2019-06-20T21:54:44.540Z,17.99
2019-06-20T21:57:32.846Z,17.97
2019-06-20T22:00:22.668Z,17.89
2019-06-20T22:03:10.219Z,17.66
2019-06-20T22:05:58.394Z,17.87
2019-06-20T22:08:46.389Z,17.85
2019-06-20T22:11:34.786Z,17.84
2019-06-20T22:14:22.928Z,17.86
2019-06-20T22:17:11.337Z,17.77
2019-06-20T22:19:58.934Z,17.77
2019-06-20T22:22:46.982Z,17.76
2019-06-20T22:25:34.781Z,17.79
2019-06-20T22:28:22.275Z,17.77
2019-06-20T22:31:10.238Z,17.72
2019-06-20T22:33:57.750Z,17.76
2019-06-20T22:36:46.208Z,17.69
2019-06-20T22:39:34.397Z,17.62
2019-06-20T22:42:21.910Z,17.55
2019-06-20T22:45:09.638Z,17.58
2019-06-20T22:47:57.678Z,17.55
2019-06-20T22:50:45.413Z,17.52
2019-06-20T22:53:33.034Z,17.49
2019-06-20T22:56:20.845Z,17.50
2019-06-20T22:59:08.948Z,17.50
2019-06-20T23:01:56.387Z,17.46
2019-06-20T23:04:44.690Z,17.31
2019-06-20T23:07:32.550Z,17.29
2019-06-20T23:10:20.131Z,17.29
2019-06-20T23:13:08.208Z,17.27
2019-06-20T23:15:55.833Z,17.24
2019-06-20T23:18:44.106Z,17.20
2019-06-20T23:21:32.049Z,17.17
2019-06-20T23:24:19.562Z,17.11
2019-06-20T23:27:07.856Z,17.06
2019-06-20T23:29:55.806Z,16.99
2019-06-20T23:32:43.840Z,16.95
2019-06-20T23:35:31.327Z,16.92
2019-06-20T23:38:19.436Z,16.85
2019-06-20T23:41:07.310Z,16.79
2019-06-20T23:43:55.289Z,16.76
2019-06-20T23:46:43.105Z,16.70
2019-06-20T23:49:30.760Z,16.63
2019-06-20T23:52:20.151Z,16.60
2019-06-20T23:55:07.892Z,16.57
2019-06-20T23:57:55.510Z,16.54
